sensor_id;sensor_type;location;lat;lon;timestamp;P1;durP1;ratioP1;P2;durP2;ratioP2
23140;SDS011;11739;54.750;9.124;2022-09-17T00:00:46;17.10;;;4.05;;
23140;SDS011;11739;54.750;9.124;2022-09-17T00:03:13;12.45;;;3.72;;
23140;SDS011;11739;54.750;9.124;2022-09-17T00:05:40;11.98;;;3.72;;
23140;SDS011;11739;54.750;9.124;2022-09-17T00:08:08;16.83;;;3.75;;
23140;SDS011;11739;54.750;9.124;2022-09-17T00:10:37;19.75;;;4.47;;
23140;SDS011;11739;54.750;9.124;2022-09-17T00:13:05;16.65;;;4.05;;
23140;SDS011;11739;54.750;9.124;2022-09-17T00:15:38;15.85;;;4.10;;
23140;SDS011;11739;54.750;9.124;2022-09-17T00:18:05;15.35;;;3.80;;
23140;SDS011;11739;54.750;9.124;2022-09-17T00:20:36;14.88;;;4.03;;
23140;SDS011;11739;54.750;9.124;2022-09-17T00:23:03;15.98;;;4.28;;
23140;SDS011;11739;54.750;9.124;2022-09-17T00:25:30;11.93;;;3.88;;
23140;SDS011;11739;54.750;9.124;2022-09-17T00:27:56;13.98;;;3.53;;
23140;SDS011;11739;54.750;9.124;2022-09-17T00:30:23;16.73;;;4.38;;
23140;SDS011;11739;54.750;9.124;2022-09-17T00:32:49;11.13;;;3.22;;
23140;SDS011;11739;54.750;9.124;2022-09-17T00:35:21;12.77;;;3.88;;
23140;SDS011;11739;54.750;9.124;2022-09-17T00:37:47;19.25;;;4.53;;
23140;SDS011;11739;54.750;9.124;2022-09-17T00:40:14;14.25;;;3.75;;
23140;SDS011;11739;54.750;9.124;2022-09-17T00:42:40;16.10;;;3.72;;
23140;SDS011;11739;54.750;9.124;2022-09-17T00:45:08;16.23;;;3.85;;
23140;SDS011;11739;54.750;9.124;2022-09-17T00:47:36;18.33;;;4.03;;
23140;SDS011;11739;54.750;9.124;2022-09-17T00:50:25;12.10;;;3.40;;
23140;SDS011;11739;54.750;9.124;2022-09-17T00:52:54;17.13;;;4.28;;
23140;SDS011;11739;54.750;9.124;2022-09-17T00:55:24;14.40;;;3.90;;
23140;SDS011;11739;54.750;9.124;2022-09-17T00:58:12;17.17;;;3.80;;
23140;SDS011;11739;54.750;9.124;2022-09-17T01:00:42;17.25;;;4.13;;
23140;SDS011;11739;54.750;9.124;2022-09-17T01:03:08;12.65;;;3.60;;
23140;SDS011;11739;54.750;9.124;2022-09-17T01:13:49;17.35;;;4.25;;
23140;SDS011;11739;54.750;9.124;2022-09-17T01:22:07;12.80;;;3.72;;
23140;SDS011;11739;54.750;9.124;2022-09-17T01:47:02;11.32;;;3.35;;
23140;SDS011;11739;54.750;9.124;2022-09-17T01:49:32;18.75;;;4.38;;
23140;SDS011;11739;54.750;9.124;2022-09-17T01:52:01;16.95;;;4.03;;
23140;SDS011;11739;54.750;9.124;2022-09-17T01:54:36;13.25;;;3.80;;
23140;SDS011;11739;54.750;9.124;2022-09-17T01:57:28;15.93;;;4.47;;
23140;SDS011;11739;54.750;9.124;2022-09-17T02:00:07;14.98;;;3.83;;
23140;SDS011;11739;54.750;9.124;2022-09-17T02:05:19;17.27;;;3.95;;
23140;SDS011;11739;54.750;9.124;2022-09-17T02:07:58;20.17;;;3.78;;
23140;SDS011;11739;54.750;9.124;2022-09-17T02:10:33;14.80;;;3.92;;
23140;SDS011;11739;54.750;9.124;2022-09-17T02:13:05;16.70;;;3.83;;
23140;SDS011;11739;54.750;9.124;2022-09-17T02:15:42;15.70;;;3.83;;
23140;SDS011;11739;54.750;9.124;2022-09-17T02:18:24;14.10;;;3.63;;
23140;SDS011;11739;54.750;9.124;2022-09-17T02:20:59;14.68;;;4.22;;
23140;SDS011;11739;54.750;9.124;2022-09-17T02:23:34;12.68;;;3.67;;
23140;SDS011;11739;54.750;9.124;2022-09-17T02:26:12;15.60;;;4.00;;
23140;SDS011;11739;54.750;9.124;2022-09-17T02:28:52;18.02;;;3.70;;
23140;SDS011;11739;54.750;9.124;2022-09-17T02:31:20;12.90;;;3.10;;
23140;SDS011;11739;54.750;9.124;2022-09-17T02:33:49;14.25;;;3.75;;
23140;SDS011;11739;54.750;9.124;2022-09-17T02:36:18;16.50;;;3.50;;
23140;SDS011;11739;54.750;9.124;2022-09-17T02:38:45;15.45;;;3.95;;
23140;SDS011;11739;54.750;9.124;2022-09-17T02:41:22;13.30;;;3.63;;
23140;SDS011;11739;54.750;9.124;2022-09-17T02:44:07;13.40;;;4.03;;
23140;SDS011;11739;54.750;9.124;2022-09-17T02:46:46;14.00;;;3.70;;
23140;SDS011;11739;54.750;9.124;2022-09-17T02:52:16;17.13;;;4.32;;
23140;SDS011;11739;54.750;9.124;2022-09-17T02:55:01;15.15;;;3.83;;
23140;SDS011;11739;54.750;9.124;2022-09-17T02:58:06;14.27;;;3.88;;
23140;SDS011;11739;54.750;9.124;2022-09-17T03:00:45;13.13;;;3.60;;
23140;SDS011;11739;54.750;9.124;2022-09-17T03:03:29;16.00;;;3.70;;
23140;SDS011;11739;54.750;9.124;2022-09-17T03:05:57;16.15;;;3.90;;
23140;SDS011;11739;54.750;9.124;2022-09-17T03:08:28;14.73;;;3.55;;
23140;SDS011;11739;54.750;9.124;2022-09-17T03:10:57;12.98;;;3.45;;
23140;SDS011;11739;54.750;9.124;2022-09-17T03:13:24;15.15;;;3.65;;
23140;SDS011;11739;54.750;9.124;2022-09-17T03:15:51;14.85;;;4.03;;
23140;SDS011;11739;54.750;9.124;2022-09-17T03:18:17;13.07;;;3.58;;
23140;SDS011;11739;54.750;9.124;2022-09-17T03:20:44;16.60;;;3.72;;
23140;SDS011;11739;54.750;9.124;2022-09-17T03:23:11;13.80;;;3.72;;
23140;SDS011;11739;54.750;9.124;2022-09-17T03:25:38;18.40;;;3.95;;
23140;SDS011;11739;54.750;9.124;2022-09-17T03:28:04;9.73;;;2.88;;
23140;SDS011;11739;54.750;9.124;2022-09-17T03:30:31;12.55;;;3.20;;
23140;SDS011;11739;54.750;9.124;2022-09-17T03:32:57;15.77;;;3.95;;
23140;SDS011;11739;54.750;9.124;2022-09-17T03:35:24;15.98;;;3.85;;
23140;SDS011;11739;54.750;9.124;2022-09-17T03:37:50;13.15;;;3.40;;
23140;SDS011;11739;54.750;9.124;2022-09-17T03:40:17;16.77;;;3.60;;
23140;SDS011;11739;54.750;9.124;2022-09-17T03:42:44;14.07;;;3.70;;
23140;SDS011;11739;54.750;9.124;2022-09-17T03:45:10;14.77;;;3.55;;
23140;SDS011;11739;54.750;9.124;2022-09-17T03:47:37;11.55;;;2.95;;
23140;SDS011;11739;54.750;9.124;2022-09-17T03:50:04;17.17;;;3.53;;
23140;SDS011;11739;54.750;9.124;2022-09-17T03:52:31;15.40;;;3.55;;
23140;SDS011;11739;54.750;9.124;2022-09-17T03:54:57;12.32;;;3.00;;
23140;SDS011;11739;54.750;9.124;2022-09-17T03:57:24;13.75;;;3.40;;
23140;SDS011;11739;54.750;9.124;2022-09-17T03:59:50;12.48;;;3.33;;
23140;SDS011;11739;54.750;9.124;2022-09-17T04:02:17;15.75;;;3.75;;
23140;SDS011;11739;54.750;9.124;2022-09-17T04:04:44;15.15;;;3.63;;
23140;SDS011;11739;54.750;9.124;2022-09-17T04:07:10;17.17;;;3.75;;
23140;SDS011;11739;54.750;9.124;2022-09-17T04:09:37;15.73;;;3.60;;
23140;SDS011;11739;54.750;9.124;2022-09-17T04:12:03;15.25;;;3.20;;
23140;SDS011;11739;54.750;9.124;2022-09-17T04:14:30;14.18;;;3.13;;
23140;SDS011;11739;54.750;9.124;2022-09-17T04:16:57;15.40;;;3.50;;
23140;SDS011;11739;54.750;9.124;2022-09-17T04:19:24;12.48;;;3.08;;
23140;SDS011;11739;54.750;9.124;2022-09-17T04:21:50;16.45;;;3.55;;
23140;SDS011;11739;54.750;9.124;2022-09-17T04:24:17;14.13;;;3.10;;
23140;SDS011;11739;54.750;9.124;2022-09-17T04:26:44;16.05;;;3.38;;
23140;SDS011;11739;54.750;9.124;2022-09-17T04:29:10;13.57;;;3.10;;
23140;SDS011;11739;54.750;9.124;2022-09-17T04:31:37;17.65;;;3.60;;
23140;SDS011;11739;54.750;9.124;2022-09-17T04:34:03;13.70;;;3.38;;
23140;SDS011;11739;54.750;9.124;2022-09-17T04:36:30;13.80;;;3.53;;
23140;SDS011;11739;54.750;9.124;2022-09-17T04:38:56;14.05;;;3.35;;
23140;SDS011;11739;54.750;9.124;2022-09-17T04:41:23;12.95;;;3.70;;
23140;SDS011;11739;54.750;9.124;2022-09-17T04:43:49;11.02;;;3.55;;
23140;SDS011;11739;54.750;9.124;2022-09-17T04:46:16;18.13;;;4.32;;
23140;SDS011;11739;54.750;9.124;2022-09-17T04:48:43;14.73;;;3.70;;
23140;SDS011;11739;54.750;9.124;2022-09-17T04:51:09;13.25;;;3.72;;
23140;SDS011;11739;54.750;9.124;2022-09-17T04:53:36;17.83;;;3.88;;
23140;SDS011;11739;54.750;9.124;2022-09-17T04:56:03;15.15;;;4.38;;
23140;SDS011;11739;54.750;9.124;2022-09-17T04:58:30;19.45;;;4.15;;
23140;SDS011;11739;54.750;9.124;2022-09-17T05:00:57;18.33;;;4.47;;
23140;SDS011;11739;54.750;9.124;2022-09-17T05:03:24;15.25;;;3.72;;
23140;SDS011;11739;54.750;9.124;2022-09-17T05:05:50;16.42;;;3.92;;
23140;SDS011;11739;54.750;9.124;2022-09-17T05:08:17;11.82;;;3.33;;
23140;SDS011;11739;54.750;9.124;2022-09-17T05:10:43;12.40;;;3.83;;
23140;SDS011;11739;54.750;9.124;2022-09-17T05:13:10;12.27;;;3.40;;
23140;SDS011;11739;54.750;9.124;2022-09-17T05:15:37;13.45;;;3.33;;
23140;SDS011;11739;54.750;9.124;2022-09-17T05:18:03;17.55;;;3.95;;
23140;SDS011;11739;54.750;9.124;2022-09-17T05:20:29;15.45;;;3.50;;
23140;SDS011;11739;54.750;9.124;2022-09-17T05:22:56;14.23;;;3.47;;
23140;SDS011;11739;54.750;9.124;2022-09-17T05:25:22;17.20;;;4.00;;
23140;SDS011;11739;54.750;9.124;2022-09-17T05:27:50;10.27;;;3.00;;
23140;SDS011;11739;54.750;9.124;2022-09-17T05:30:19;12.27;;;3.47;;
23140;SDS011;11739;54.750;9.124;2022-09-17T05:32:46;16.38;;;3.92;;
23140;SDS011;11739;54.750;9.124;2022-09-17T05:35:13;11.90;;;3.45;;
23140;SDS011;11739;54.750;9.124;2022-09-17T05:37:39;16.15;;;3.42;;
23140;SDS011;11739;54.750;9.124;2022-09-17T05:40:06;9.90;;;2.67;;
23140;SDS011;11739;54.750;9.124;2022-09-17T05:42:33;12.60;;;3.22;;
23140;SDS011;11739;54.750;9.124;2022-09-17T05:45:00;21.38;;;4.22;;
23140;SDS011;11739;54.750;9.124;2022-09-17T05:47:27;12.18;;;3.25;;
23140;SDS011;11739;54.750;9.124;2022-09-17T05:49:53;11.23;;;3.10;;
23140;SDS011;11739;54.750;9.124;2022-09-17T05:52:20;12.32;;;3.20;;
23140;SDS011;11739;54.750;9.124;2022-09-17T05:54:46;13.20;;;3.47;;
23140;SDS011;11739;54.750;9.124;2022-09-17T05:57:16;14.05;;;3.28;;
23140;SDS011;11739;54.750;9.124;2022-09-17T05:59:43;12.48;;;3.15;;
23140;SDS011;11739;54.750;9.124;2022-09-17T06:02:13;13.07;;;3.20;;
23140;SDS011;11739;54.750;9.124;2022-09-17T06:04:39;8.32;;;3.08;;
23140;SDS011;11739;54.750;9.124;2022-09-17T06:07:06;14.60;;;3.20;;
23140;SDS011;11739;54.750;9.124;2022-09-17T06:09:35;9.60;;;3.00;;
23140;SDS011;11739;54.750;9.124;2022-09-17T06:12:03;11.32;;;3.63;;
23140;SDS011;11739;54.750;9.124;2022-09-17T06:14:30;15.00;;;3.22;;
23140;SDS011;11739;54.750;9.124;2022-09-17T06:16:57;13.25;;;3.20;;
23140;SDS011;11739;54.750;9.124;2022-09-17T06:19:23;11.15;;;3.00;;
23140;SDS011;11739;54.750;9.124;2022-09-17T06:21:50;11.82;;;3.35;;
23140;SDS011;11739;54.750;9.124;2022-09-17T06:24:17;8.73;;;2.72;;
23140;SDS011;11739;54.750;9.124;2022-09-17T06:26:43;9.82;;;3.40;;
23140;SDS011;11739;54.750;9.124;2022-09-17T06:29:10;12.60;;;3.40;;
23140;SDS011;11739;54.750;9.124;2022-09-17T06:31:40;12.40;;;2.70;;
23140;SDS011;11739;54.750;9.124;2022-09-17T06:34:10;12.50;;;3.22;;
23140;SDS011;11739;54.750;9.124;2022-09-17T06:36:36;8.90;;;2.78;;
23140;SDS011;11739;54.750;9.124;2022-09-17T06:39:03;11.63;;;3.35;;
23140;SDS011;11739;54.750;9.124;2022-09-17T06:41:29;12.82;;;3.08;;
23140;SDS011;11739;54.750;9.124;2022-09-17T06:43:56;12.18;;;3.35;;
23140;SDS011;11739;54.750;9.124;2022-09-17T06:46:23;8.60;;;2.70;;
23140;SDS011;11739;54.750;9.124;2022-09-17T06:48:49;14.77;;;2.75;;
23140;SDS011;11739;54.750;9.124;2022-09-17T06:51:16;13.55;;;3.33;;
23140;SDS011;11739;54.750;9.124;2022-09-17T06:53:42;13.32;;;3.65;;
23140;SDS011;11739;54.750;9.124;2022-09-17T06:56:09;11.77;;;3.10;;
23140;SDS011;11739;54.750;9.124;2022-09-17T06:58:36;14.75;;;3.65;;
23140;SDS011;11739;54.750;9.124;2022-09-17T07:01:03;10.95;;;2.97;;
23140;SDS011;11739;54.750;9.124;2022-09-17T07:03:30;14.65;;;3.22;;
23140;SDS011;11739;54.750;9.124;2022-09-17T07:05:57;14.57;;;3.10;;
23140;SDS011;11739;54.750;9.124;2022-09-17T07:08:23;13.07;;;3.47;;
23140;SDS011;11739;54.750;9.124;2022-09-17T07:10:53;12.15;;;3.17;;
23140;SDS011;11739;54.750;9.124;2022-09-17T07:13:21;14.32;;;3.35;;
23140;SDS011;11739;54.750;9.124;2022-09-17T07:15:54;12.93;;;3.33;;
23140;SDS011;11739;54.750;9.124;2022-09-17T07:18:23;13.38;;;3.30;;
23140;SDS011;11739;54.750;9.124;2022-09-17T07:20:57;11.98;;;2.95;;
23140;SDS011;11739;54.750;9.124;2022-09-17T07:23:25;12.68;;;3.28;;
23140;SDS011;11739;54.750;9.124;2022-09-17T07:25:56;14.52;;;3.83;;
23140;SDS011;11739;54.750;9.124;2022-09-17T07:28:24;13.18;;;3.85;;
23140;SDS011;11739;54.750;9.124;2022-09-17T07:30:51;13.40;;;3.15;;
23140;SDS011;11739;54.750;9.124;2022-09-17T07:33:19;12.23;;;3.40;;
23140;SDS011;11739;54.750;9.124;2022-09-17T07:35:54;14.63;;;3.30;;
23140;SDS011;11739;54.750;9.124;2022-09-17T07:38:22;10.70;;;3.30;;
23140;SDS011;11739;54.750;9.124;2022-09-17T07:40:55;13.73;;;3.03;;
23140;SDS011;11739;54.750;9.124;2022-09-17T07:43:24;10.60;;;3.47;;
23140;SDS011;11739;54.750;9.124;2022-09-17T07:45:51;10.55;;;3.08;;
23140;SDS011;11739;54.750;9.124;2022-09-17T07:48:19;15.70;;;3.65;;
23140;SDS011;11739;54.750;9.124;2022-09-17T07:50:46;15.43;;;3.60;;
23140;SDS011;11739;54.750;9.124;2022-09-17T07:53:13;10.75;;;3.38;;
23140;SDS011;11739;54.750;9.124;2022-09-17T07:55:40;10.07;;;3.13;;
23140;SDS011;11739;54.750;9.124;2022-09-17T07:58:07;10.75;;;3.53;;
23140;SDS011;11739;54.750;9.124;2022-09-17T08:00:33;10.20;;;3.30;;
23140;SDS011;11739;54.750;9.124;2022-09-17T08:03:00;12.40;;;2.80;;
23140;SDS011;11739;54.750;9.124;2022-09-17T08:05:27;13.90;;;3.47;;
23140;SDS011;11739;54.750;9.124;2022-09-17T08:07:53;10.48;;;2.80;;
23140;SDS011;11739;54.750;9.124;2022-09-17T08:10:21;14.57;;;3.33;;
23140;SDS011;11739;54.750;9.124;2022-09-17T08:12:48;11.38;;;3.20;;
23140;SDS011;11739;54.750;9.124;2022-09-17T08:15:15;10.13;;;3.70;;
23140;SDS011;11739;54.750;9.124;2022-09-17T08:17:43;10.27;;;3.00;;
23140;SDS011;11739;54.750;9.124;2022-09-17T08:20:10;12.80;;;2.97;;
23140;SDS011;11739;54.750;9.124;2022-09-17T08:22:40;11.93;;;3.60;;
23140;SDS011;11739;54.750;9.124;2022-09-17T08:25:07;11.95;;;3.42;;
23140;SDS011;11739;54.750;9.124;2022-09-17T08:27:35;8.50;;;2.83;;
23140;SDS011;11739;54.750;9.124;2022-09-17T08:30:05;10.50;;;2.70;;
23140;SDS011;11739;54.750;9.124;2022-09-17T08:32:32;9.13;;;2.78;;
23140;SDS011;11739;54.750;9.124;2022-09-17T08:34:59;10.38;;;2.67;;
23140;SDS011;11739;54.750;9.124;2022-09-17T08:37:26;9.80;;;2.50;;
23140;SDS011;11739;54.750;9.124;2022-09-17T08:39:55;11.77;;;3.20;;
23140;SDS011;11739;54.750;9.124;2022-09-17T08:42:30;7.78;;;2.47;;
23140;SDS011;11739;54.750;9.124;2022-09-17T08:45:03;11.52;;;3.03;;
23140;SDS011;11739;54.750;9.124;2022-09-17T08:47:33;9.13;;;2.30;;
23140;SDS011;11739;54.750;9.124;2022-09-17T08:50:03;8.85;;;2.53;;
23140;SDS011;11739;54.750;9.124;2022-09-17T08:55:32;9.85;;;3.10;;
23140;SDS011;11739;54.750;9.124;2022-09-17T09:00:56;10.15;;;2.63;;
23140;SDS011;11739;54.750;9.124;2022-09-17T09:06:26;9.52;;;2.28;;
23140;SDS011;11739;54.750;9.124;2022-09-17T09:09:00;7.55;;;2.10;;
23140;SDS011;11739;54.750;9.124;2022-09-17T09:11:29;5.97;;;2.28;;
23140;SDS011;11739;54.750;9.124;2022-09-17T09:13:58;9.18;;;2.28;;
23140;SDS011;11739;54.750;9.124;2022-09-17T09:16:27;6.82;;;2.38;;
23140;SDS011;11739;54.750;9.124;2022-09-17T09:19:10;7.85;;;2.33;;
23140;SDS011;11739;54.750;9.124;2022-09-17T09:33:35;10.07;;;2.10;;
23140;SDS011;11739;54.750;9.124;2022-09-17T09:36:06;7.93;;;2.08;;
23140;SDS011;11739;54.750;9.124;2022-09-17T09:41:12;9.07;;;2.35;;
23140;SDS011;11739;54.750;9.124;2022-09-17T09:51:44;10.40;;;2.40;;
23140;SDS011;11739;54.750;9.124;2022-09-17T09:57:42;6.57;;;2.13;;
23140;SDS011;11739;54.750;9.124;2022-09-17T10:00:21;10.02;;;1.98;;
23140;SDS011;11739;54.750;9.124;2022-09-17T10:03:05;10.05;;;2.20;;
23140;SDS011;11739;54.750;9.124;2022-09-17T10:05:36;6.95;;;1.88;;
23140;SDS011;11739;54.750;9.124;2022-09-17T10:08:12;7.70;;;2.10;;
23140;SDS011;11739;54.750;9.124;2022-09-17T10:13:25;7.78;;;2.00;;
23140;SDS011;11739;54.750;9.124;2022-09-17T10:15:52;6.82;;;2.00;;
23140;SDS011;11739;54.750;9.124;2022-09-17T10:18:22;7.85;;;2.28;;
23140;SDS011;11739;54.750;9.124;2022-09-17T10:23:18;5.53;;;1.80;;
23140;SDS011;11739;54.750;9.124;2022-09-17T10:25:46;4.70;;;1.60;;
23140;SDS011;11739;54.750;9.124;2022-09-17T10:28:23;5.65;;;2.10;;
23140;SDS011;11739;54.750;9.124;2022-09-17T10:30:58;7.65;;;1.80;;
23140;SDS011;11739;54.750;9.124;2022-09-17T10:33:30;6.32;;;1.75;;
23140;SDS011;11739;54.750;9.124;2022-09-17T10:38:27;4.45;;;1.73;;
23140;SDS011;11739;54.750;9.124;2022-09-17T10:41:08;4.57;;;1.50;;
23140;SDS011;11739;54.750;9.124;2022-09-17T10:43:36;9.18;;;1.95;;
23140;SDS011;11739;54.750;9.124;2022-09-17T10:46:03;5.25;;;1.63;;
23140;SDS011;11739;54.750;9.124;2022-09-17T10:48:31;3.75;;;1.10;;
23140;SDS011;11739;54.750;9.124;2022-09-17T10:50:59;2.58;;;0.90;;
23140;SDS011;11739;54.750;9.124;2022-09-17T10:53:28;4.85;;;1.08;;
23140;SDS011;11739;54.750;9.124;2022-09-17T11:12:55;3.53;;;0.90;;
23140;SDS011;11739;54.750;9.124;2022-09-17T11:18:19;3.72;;;1.20;;
23140;SDS011;11739;54.750;9.124;2022-09-17T11:29:47;2.28;;;0.90;;
23140;SDS011;11739;54.750;9.124;2022-09-17T11:32:38;4.05;;;0.90;;
23140;SDS011;11739;54.750;9.124;2022-09-17T11:35:14;3.53;;;0.70;;
23140;SDS011;11739;54.750;9.124;2022-09-17T11:37:57;4.88;;;0.93;;
23140;SDS011;11739;54.750;9.124;2022-09-17T11:43:15;2.50;;;0.80;;
23140;SDS011;11739;54.750;9.124;2022-09-17T11:46:09;4.07;;;0.82;;
23140;SDS011;11739;54.750;9.124;2022-09-17T11:48:46;4.68;;;1.00;;
23140;SDS011;11739;54.750;9.124;2022-09-17T11:51:25;2.72;;;0.93;;
23140;SDS011;11739;54.750;9.124;2022-09-17T11:56:52;3.28;;;0.98;;
23140;SDS011;11739;54.750;9.124;2022-09-17T11:59:29;2.28;;;1.00;;
23140;SDS011;11739;54.750;9.124;2022-09-17T12:07:02;3.83;;;0.82;;
23140;SDS011;11739;54.750;9.124;2022-09-17T12:09:58;3.28;;;1.13;;
23140;SDS011;11739;54.750;9.124;2022-09-17T12:12:29;4.07;;;1.00;;
23140;SDS011;11739;54.750;9.124;2022-09-17T12:15:17;1.55;;;0.70;;
23140;SDS011;11739;54.750;9.124;2022-09-17T12:20:56;1.23;;;0.63;;
23140;SDS011;11739;54.750;9.124;2022-09-17T12:23:38;2.60;;;0.70;;
23140;SDS011;11739;54.750;9.124;2022-09-17T12:29:14;1.35;;;0.50;;
23140;SDS011;11739;54.750;9.124;2022-09-17T12:34:46;0.93;;;0.50;;
23140;SDS011;11739;54.750;9.124;2022-09-17T12:42:55;2.25;;;0.73;;
23140;SDS011;11739;54.750;9.124;2022-09-17T12:45:35;1.75;;;0.65;;
23140;SDS011;11739;54.750;9.124;2022-09-17T12:59:16;3.10;;;0.98;;
23140;SDS011;11739;54.750;9.124;2022-09-17T13:01:59;4.55;;;1.00;;
23140;SDS011;11739;54.750;9.124;2022-09-17T13:18:35;2.72;;;1.10;;
23140;SDS011;11739;54.750;9.124;2022-09-17T13:24:21;3.15;;;1.60;;
23140;SDS011;11739;54.750;9.124;2022-09-17T13:26:53;4.32;;;1.52;;
23140;SDS011;11739;54.750;9.124;2022-09-17T13:32:08;5.80;;;2.30;;
23140;SDS011;11739;54.750;9.124;2022-09-17T13:34:54;5.22;;;1.70;;
23140;SDS011;11739;54.750;9.124;2022-09-17T13:37:21;4.55;;;1.45;;
23140;SDS011;11739;54.750;9.124;2022-09-17T13:39:48;4.65;;;1.33;;
23140;SDS011;11739;54.750;9.124;2022-09-17T13:42:17;7.63;;;1.70;;
23140;SDS011;11739;54.750;9.124;2022-09-17T13:45:09;4.45;;;1.60;;
23140;SDS011;11739;54.750;9.124;2022-09-17T13:47:58;5.53;;;1.70;;
23140;SDS011;11739;54.750;9.124;2022-09-17T13:50:27;3.38;;;1.48;;
23140;SDS011;11739;54.750;9.124;2022-09-17T13:52:54;3.72;;;1.40;;
23140;SDS011;11739;54.750;9.124;2022-09-17T13:55:32;4.47;;;1.25;;
23140;SDS011;11739;54.750;9.124;2022-09-17T13:58:04;4.45;;;1.77;;
23140;SDS011;11739;54.750;9.124;2022-09-17T14:00:47;6.38;;;1.50;;
23140;SDS011;11739;54.750;9.124;2022-09-17T14:03:34;3.90;;;1.33;;
23140;SDS011;11739;54.750;9.124;2022-09-17T14:08:29;6.03;;;1.60;;
23140;SDS011;11739;54.750;9.124;2022-09-17T14:16:45;4.65;;;1.50;;
23140;SDS011;11739;54.750;9.124;2022-09-17T14:19:33;5.88;;;1.77;;
23140;SDS011;11739;54.750;9.124;2022-09-17T14:22:19;5.65;;;1.48;;
23140;SDS011;11739;54.750;9.124;2022-09-17T14:24:50;4.68;;;1.38;;
23140;SDS011;11739;54.750;9.124;2022-09-17T14:32:44;5.30;;;1.40;;
23140;SDS011;11739;54.750;9.124;2022-09-17T14:35:22;2.90;;;1.30;;
23140;SDS011;11739;54.750;9.124;2022-09-17T14:37:53;5.82;;;1.52;;
23140;SDS011;11739;54.750;9.124;2022-09-17T14:40:22;8.80;;;1.42;;
23140;SDS011;11739;54.750;9.124;2022-09-17T14:42:50;5.22;;;1.73;;
23140;SDS011;11739;54.750;9.124;2022-09-17T14:45:21;4.13;;;1.20;;
23140;SDS011;11739;54.750;9.124;2022-09-17T14:48:15;6.43;;;1.92;;
23140;SDS011;11739;54.750;9.124;2022-09-17T14:50:42;7.07;;;1.75;;
23140;SDS011;11739;54.750;9.124;2022-09-17T14:53:16;3.75;;;1.30;;
23140;SDS011;11739;54.750;9.124;2022-09-17T14:55:45;4.28;;;1.60;;
23140;SDS011;11739;54.750;9.124;2022-09-17T14:58:27;5.60;;;1.58;;
23140;SDS011;11739;54.750;9.124;2022-09-17T15:03:22;6.80;;;1.83;;
23140;SDS011;11739;54.750;9.124;2022-09-17T15:05:49;9.75;;;2.42;;
23140;SDS011;11739;54.750;9.124;2022-09-17T15:08:17;7.43;;;1.83;;
23140;SDS011;11739;54.750;9.124;2022-09-17T15:11:12;9.35;;;2.13;;
23140;SDS011;11739;54.750;9.124;2022-09-17T15:13:41;9.63;;;2.63;;
23140;SDS011;11739;54.750;9.124;2022-09-17T15:16:21;8.32;;;2.25;;
23140;SDS011;11739;54.750;9.124;2022-09-17T15:18:51;9.23;;;2.17;;
23140;SDS011;11739;54.750;9.124;2022-09-17T15:21:52;7.15;;;1.98;;
23140;SDS011;11739;54.750;9.124;2022-09-17T15:27:05;10.27;;;2.50;;
23140;SDS011;11739;54.750;9.124;2022-09-17T15:29:35;6.78;;;2.40;;
23140;SDS011;11739;54.750;9.124;2022-09-17T15:32:04;10.15;;;2.70;;
23140;SDS011;11739;54.750;9.124;2022-09-17T15:34:31;8.68;;;1.90;;
23140;SDS011;11739;54.750;9.124;2022-09-17T15:39:48;8.43;;;2.35;;
23140;SDS011;11739;54.750;9.124;2022-09-17T15:42:26;7.55;;;2.38;;
23140;SDS011;11739;54.750;9.124;2022-09-17T15:48:04;12.00;;;2.67;;
23140;SDS011;11739;54.750;9.124;2022-09-17T15:50:48;8.25;;;2.10;;
23140;SDS011;11739;54.750;9.124;2022-09-17T15:53:23;7.85;;;2.28;;
23140;SDS011;11739;54.750;9.124;2022-09-17T15:58:33;10.88;;;2.70;;
23140;SDS011;11739;54.750;9.124;2022-09-17T16:08:45;11.35;;;2.85;;
23140;SDS011;11739;54.750;9.124;2022-09-17T16:11:19;9.20;;;2.50;;
23140;SDS011;11739;54.750;9.124;2022-09-17T16:13:47;9.07;;;2.88;;
23140;SDS011;11739;54.750;9.124;2022-09-17T16:16:16;8.55;;;2.45;;
23140;SDS011;11739;54.750;9.124;2022-09-17T16:18:54;7.90;;;2.55;;
23140;SDS011;11739;54.750;9.124;2022-09-17T16:21:21;9.55;;;2.15;;
23140;SDS011;11739;54.750;9.124;2022-09-17T16:23:47;8.18;;;2.08;;
23140;SDS011;11739;54.750;9.124;2022-09-17T16:26:17;7.85;;;2.22;;
23140;SDS011;11739;54.750;9.124;2022-09-17T16:28:46;8.15;;;2.10;;
23140;SDS011;11739;54.750;9.124;2022-09-17T16:31:14;9.00;;;2.38;;
23140;SDS011;11739;54.750;9.124;2022-09-17T16:33:41;7.80;;;2.58;;
23140;SDS011;11739;54.750;9.124;2022-09-17T16:36:07;9.98;;;2.58;;
23140;SDS011;11739;54.750;9.124;2022-09-17T16:38:34;10.57;;;2.50;;
23140;SDS011;11739;54.750;9.124;2022-09-17T16:41:03;10.57;;;2.38;;
23140;SDS011;11739;54.750;9.124;2022-09-17T16:43:30;10.32;;;2.35;;
23140;SDS011;11739;54.750;9.124;2022-09-17T16:45:59;9.20;;;2.55;;
23140;SDS011;11739;54.750;9.124;2022-09-17T16:48:26;6.25;;;1.95;;
23140;SDS011;11739;54.750;9.124;2022-09-17T16:50:53;9.55;;;2.22;;
23140;SDS011;11739;54.750;9.124;2022-09-17T16:53:19;10.18;;;2.20;;
23140;SDS011;11739;54.750;9.124;2022-09-17T16:55:45;8.55;;;2.00;;
23140;SDS011;11739;54.750;9.124;2022-09-17T16:58:12;8.77;;;2.40;;
23140;SDS011;11739;54.750;9.124;2022-09-17T17:00:41;11.65;;;2.50;;
23140;SDS011;11739;54.750;9.124;2022-09-17T17:03:08;5.50;;;1.95;;
23140;SDS011;11739;54.750;9.124;2022-09-17T17:05:39;11.57;;;2.13;;
23140;SDS011;11739;54.750;9.124;2022-09-17T17:08:06;10.23;;;2.70;;
23140;SDS011;11739;54.750;9.124;2022-09-17T17:10:34;9.05;;;2.38;;
23140;SDS011;11739;54.750;9.124;2022-09-17T17:13:03;10.15;;;2.47;;
23140;SDS011;11739;54.750;9.124;2022-09-17T17:15:29;7.30;;;2.15;;
23140;SDS011;11739;54.750;9.124;2022-09-17T17:17:56;7.38;;;2.50;;
23140;SDS011;11739;54.750;9.124;2022-09-17T17:20:22;9.60;;;2.30;;
23140;SDS011;11739;54.750;9.124;2022-09-17T17:22:49;7.70;;;2.50;;
23140;SDS011;11739;54.750;9.124;2022-09-17T17:25:17;6.95;;;2.00;;
23140;SDS011;11739;54.750;9.124;2022-09-17T17:27:43;12.25;;;2.63;;
23140;SDS011;11739;54.750;9.124;2022-09-17T17:30:10;8.23;;;2.42;;
23140;SDS011;11739;54.750;9.124;2022-09-17T17:32:42;8.15;;;2.17;;
23140;SDS011;11739;54.750;9.124;2022-09-17T17:35:09;9.43;;;2.20;;
23140;SDS011;11739;54.750;9.124;2022-09-17T17:37:35;6.82;;;2.22;;
23140;SDS011;11739;54.750;9.124;2022-09-17T17:40:02;10.48;;;2.20;;
23140;SDS011;11739;54.750;9.124;2022-09-17T17:42:35;8.77;;;1.52;;
23140;SDS011;11739;54.750;9.124;2022-09-17T17:45:04;8.15;;;2.22;;
23140;SDS011;11739;54.750;9.124;2022-09-17T17:47:32;9.00;;;2.25;;
23140;SDS011;11739;54.750;9.124;2022-09-17T17:49:59;11.10;;;2.72;;
23140;SDS011;11739;54.750;9.124;2022-09-17T17:52:25;9.50;;;2.30;;
23140;SDS011;11739;54.750;9.124;2022-09-17T17:54:53;10.80;;;2.70;;
23140;SDS011;11739;54.750;9.124;2022-09-17T17:57:19;9.50;;;2.65;;
23140;SDS011;11739;54.750;9.124;2022-09-17T17:59:46;7.50;;;2.25;;
23140;SDS011;11739;54.750;9.124;2022-09-17T18:02:12;7.43;;;2.40;;
23140;SDS011;11739;54.750;9.124;2022-09-17T18:04:39;9.00;;;2.35;;
23140;SDS011;11739;54.750;9.124;2022-09-17T18:07:05;11.38;;;2.80;;
23140;SDS011;11739;54.750;9.124;2022-09-17T18:09:32;10.80;;;2.60;;
23140;SDS011;11739;54.750;9.124;2022-09-17T18:11:59;9.63;;;2.80;;
23140;SDS011;11739;54.750;9.124;2022-09-17T18:14:25;7.53;;;2.35;;
23140;SDS011;11739;54.750;9.124;2022-09-17T18:16:52;9.77;;;2.17;;
23140;SDS011;11739;54.750;9.124;2022-09-17T18:19:19;12.07;;;2.78;;
23140;SDS011;11739;54.750;9.124;2022-09-17T18:21:46;6.35;;;2.00;;
23140;SDS011;11739;54.750;9.124;2022-09-17T18:24:13;10.00;;;2.45;;